createdAt,value
2022-11-15T00:00:27.426Z,32.05
2022-11-15T00:03:23.299Z,29.50
2022-11-15T00:06:10.725Z,29.83
2022-11-15T00:09:03.411Z,29.48
2022-11-15T00:11:52.702Z,31.30
2022-11-15T00:14:41.577Z,29.00
2022-11-15T00:17:28.503Z,29.85
2022-11-15T00:20:22.643Z,31.08
2022-11-15T00:23:10.711Z,29.05
2022-11-15T00:26:03.724Z,28.88
2022-11-15T00:28:54.748Z,30.02
2022-11-15T00:31:43.535Z,32.35
2022-11-15T00:34:32.693Z,30.27
2022-11-15T00:37:19.949Z,28.83
2022-11-15T00:40:17.943Z,30.48
2022-11-15T00:43:08.340Z,27.90
2022-11-15T00:45:57.027Z,29.95
2022-11-15T00:48:46.163Z,30.75
2022-11-15T00:51:33.822Z,28.83
2022-11-15T00:54:24.704Z,29.80
2022-11-15T00:57:13.027Z,27.98
2022-11-15T01:00:00.818Z,30.45
2022-11-15T01:02:49.286Z,34.60
2022-11-15T01:05:38.870Z,28.00
2022-11-15T01:08:26.156Z,43.42
2022-11-15T01:11:13.899Z,32.80
2022-11-15T01:14:01.555Z,33.22
2022-11-15T01:16:49.114Z,32.30
2022-11-15T01:19:36.044Z,33.70
2022-11-15T01:22:24.023Z,35.00
2022-11-15T01:25:14.082Z,38.28
2022-11-15T01:28:02.341Z,37.55
2022-11-15T01:30:51.076Z,30.50
2022-11-15T01:33:40.061Z,33.53
2022-11-15T01:36:28.029Z,29.95
2022-11-15T01:39:18.059Z,30.70
2022-11-15T01:42:08.194Z,32.28
2022-11-15T01:44:58.058Z,32.67
2022-11-15T01:47:48.486Z,30.85
2022-11-15T01:50:36.326Z,32.55
2022-11-15T01:53:30.073Z,31.95
2022-11-15T01:56:24.695Z,33.88
2022-11-15T01:59:16.637Z,36.40
2022-11-15T02:02:06.665Z,36.17
2022-11-15T02:04:56.920Z,31.80
2022-11-15T02:07:46.909Z,33.10
2022-11-15T02:10:33.665Z,34.40
2022-11-15T02:13:20.883Z,33.88
2022-11-15T02:16:39.070Z,31.23
2022-11-15T02:19:34.619Z,32.28
2022-11-15T02:22:26.113Z,31.00
2022-11-15T02:25:33.152Z,31.70
2022-11-15T02:28:42.457Z,32.38
2022-11-15T02:31:45.031Z,32.15
2022-11-15T02:34:36.424Z,33.45
2022-11-15T02:37:32.821Z,30.45
2022-11-15T02:40:34.776Z,32.80
2022-11-15T02:43:51.136Z,31.63
2022-11-15T02:47:06.797Z,32.15
2022-11-15T02:49:59.029Z,32.53
2022-11-15T02:52:55.603Z,32.67
2022-11-15T02:55:46.437Z,32.28
2022-11-15T02:58:42.148Z,33.28
2022-11-15T03:01:49.475Z,31.80
2022-11-15T03:04:46.010Z,32.95
2022-11-15T03:08:10.435Z,33.80
2022-11-15T03:11:05.886Z,35.00
2022-11-15T03:14:01.006Z,34.28
2022-11-15T03:17:10.728Z,33.30
2022-11-15T03:20:05.700Z,34.13
2022-11-15T03:23:01.450Z,35.20
2022-11-15T03:25:53.423Z,33.72
2022-11-15T03:29:00.828Z,36.05
2022-11-15T03:31:53.403Z,35.25
2022-11-15T03:34:45.770Z,34.95
2022-11-15T03:37:37.134Z,35.58
2022-11-15T03:40:29.790Z,35.92
2022-11-15T03:43:38.609Z,35.83
2022-11-15T03:46:39.109Z,34.42
2022-11-15T03:49:37.155Z,35.92
2022-11-15T03:52:26.010Z,35.33
2022-11-15T03:55:15.935Z,35.13
2022-11-15T03:58:09.695Z,35.05
2022-11-15T04:00:57.577Z,34.63
2022-11-15T04:03:48.567Z,32.58
2022-11-15T04:06:38.966Z,32.35
2022-11-15T04:09:27.226Z,33.00
2022-11-15T04:12:32.073Z,32.88
2022-11-15T04:15:21.607Z,34.72
2022-11-15T04:18:10.287Z,33.78
2022-11-15T04:21:19.635Z,33.92
2022-11-15T04:24:13.540Z,34.45
2022-11-15T04:27:01.829Z,37.85
2022-11-15T04:29:50.466Z,35.63
2022-11-15T04:32:38.664Z,36.15
2022-11-15T04:35:26.844Z,35.08
2022-11-15T04:38:15.076Z,33.78
2022-11-15T04:41:04.436Z,36.35
2022-11-15T04:43:55.991Z,40.10
2022-11-15T04:46:46.417Z,37.22
2022-11-15T04:49:35.639Z,38.72
2022-11-15T04:52:23.045Z,36.22
2022-11-15T04:55:16.972Z,39.78
2022-11-15T04:58:03.892Z,36.05
2022-11-15T05:00:51.148Z,34.05
2022-11-15T05:03:57.012Z,34.55
2022-11-15T05:06:50.014Z,35.20
2022-11-15T05:09:36.989Z,35.70
2022-11-15T05:12:29.273Z,38.10
2022-11-15T05:15:16.793Z,34.60
2022-11-15T05:18:04.200Z,37.55
2022-11-15T05:20:52.392Z,34.33
2022-11-15T05:23:41.544Z,33.25
2022-11-15T05:26:29.675Z,34.95
2022-11-15T05:29:17.357Z,36.17
2022-11-15T05:32:07.953Z,34.80
2022-11-15T05:34:57.322Z,35.80
2022-11-15T05:37:44.635Z,35.33
2022-11-15T05:40:36.740Z,33.85
2022-11-15T05:43:24.306Z,34.72
2022-11-15T05:46:12.691Z,37.13
2022-11-15T05:49:04.515Z,36.35
2022-11-15T05:51:53.755Z,36.67
2022-11-15T05:54:41.723Z,37.67
2022-11-15T05:57:31.353Z,37.40
2022-11-15T06:00:20.233Z,32.83
2022-11-15T06:03:08.109Z,43.85
2022-11-15T06:05:55.801Z,32.47
2022-11-15T06:08:45.657Z,31.27
2022-11-15T06:11:37.232Z,32.35
2022-11-15T06:14:29.428Z,33.33
2022-11-15T06:17:20.132Z,29.63
2022-11-15T06:20:10.934Z,36.55
2022-11-15T06:23:04.118Z,38.63
2022-11-15T06:25:53.042Z,34.47
2022-11-15T06:28:41.961Z,75.60
2022-11-15T06:31:30.209Z,39.80
2022-11-15T06:34:18.953Z,36.53
2022-11-15T06:40:12.761Z,30.33
2022-11-15T06:43:01.654Z,29.67
2022-11-15T06:45:50.243Z,31.55
2022-11-15T06:48:39.872Z,35.88
2022-11-15T06:51:29.211Z,26.15
2022-11-15T06:54:18.801Z,27.50
2022-11-15T06:57:09.851Z,27.30
2022-11-15T06:59:57.790Z,30.25
2022-11-15T07:02:46.580Z,37.88
2022-11-15T07:05:35.302Z,30.15
2022-11-15T07:08:23.793Z,28.25
2022-11-15T07:11:10.767Z,31.80
2022-11-15T07:14:00.814Z,32.55
2022-11-15T07:16:48.775Z,35.15
2022-11-15T07:19:36.727Z,31.52
2022-11-15T07:22:25.987Z,31.80
2022-11-15T07:25:13.344Z,32.67
2022-11-15T07:28:04.812Z,38.63
2022-11-15T07:30:53.709Z,42.58
2022-11-15T07:33:46.645Z,31.63
2022-11-15T07:36:34.725Z,33.08
2022-11-15T07:39:23.585Z,41.58
2022-11-15T07:42:29.932Z,44.58
2022-11-15T07:45:18.151Z,58.47
2022-11-15T07:48:07.603Z,142.88
2022-11-15T07:50:55.790Z,94.80
2022-11-15T07:53:45.043Z,43.70
2022-11-15T07:56:33.544Z,37.03
2022-11-15T07:59:22.692Z,32.17
2022-11-15T08:02:11.433Z,32.53
2022-11-15T08:04:58.738Z,32.80
2022-11-15T08:07:48.239Z,40.58
2022-11-15T08:10:40.617Z,68.07
2022-11-15T08:13:29.491Z,31.73
2022-11-15T08:16:17.824Z,51.92
2022-11-15T08:19:05.011Z,38.17
2022-11-15T08:21:52.556Z,31.80
2022-11-15T08:24:40.318Z,37.75
2022-11-15T08:27:28.079Z,32.42
2022-11-15T08:30:18.340Z,35.25
2022-11-15T08:33:07.286Z,25.60
2022-11-15T08:35:59.227Z,28.10
2022-11-15T08:38:49.052Z,27.75
2022-11-15T08:41:39.986Z,25.95
2022-11-15T08:44:29.622Z,27.48
2022-11-15T08:47:17.975Z,33.53
2022-11-15T08:50:05.845Z,30.95
2022-11-15T08:52:54.095Z,36.00
2022-11-15T08:55:44.768Z,35.40
2022-11-15T08:58:35.136Z,28.42
2022-11-15T09:01:25.263Z,31.88
2022-11-15T09:04:15.018Z,31.48
2022-11-15T09:07:03.875Z,23.95
2022-11-15T09:09:53.519Z,22.83
2022-11-15T09:12:41.436Z,22.90
2022-11-15T09:15:30.606Z,25.42
2022-11-15T09:18:17.807Z,32.15
2022-11-15T09:21:06.601Z,30.25
2022-11-15T09:23:53.823Z,32.83
2022-11-15T09:26:41.057Z,43.13
2022-11-15T09:29:28.618Z,29.70
2022-11-15T09:32:16.127Z,33.80
2022-11-15T09:35:02.824Z,36.92
2022-11-15T09:37:54.993Z,36.45
2022-11-15T09:40:53.662Z,38.53
2022-11-15T09:44:01.020Z,33.50
2022-11-15T09:46:59.720Z,32.13
2022-11-15T09:49:58.110Z,41.08
2022-11-15T09:52:43.885Z,31.30
2022-11-15T09:55:22.618Z,34.28
2022-11-15T09:58:00.818Z,35.83
2022-11-15T10:00:52.730Z,34.17
2022-11-15T10:03:43.145Z,36.92
2022-11-15T10:06:24.738Z,40.00
2022-11-15T10:09:03.595Z,37.47
2022-11-15T10:11:39.805Z,34.97
2022-11-15T10:14:16.037Z,31.02
2022-11-15T10:17:03.505Z,39.87
2022-11-15T10:19:35.040Z,38.80
2022-11-15T10:22:24.575Z,36.92
2022-11-15T10:25:02.364Z,37.85
2022-11-15T10:27:32.588Z,36.67
2022-11-15T10:30:01.323Z,30.40
2022-11-15T10:32:30.862Z,28.98
2022-11-15T10:34:59.302Z,29.63
2022-11-15T10:37:32.758Z,30.50
2022-11-15T10:40:07.283Z,37.85
2022-11-15T10:42:36.683Z,28.13
2022-11-15T10:45:24.223Z,28.85
2022-11-15T10:47:53.572Z,29.00
2022-11-15T10:50:32.906Z,28.55
2022-11-15T10:53:06.376Z,34.70
2022-11-15T10:55:35.760Z,54.90
2022-11-15T10:58:22.597Z,102.70
2022-11-15T11:00:54.449Z,67.10
2022-11-15T11:03:31.675Z,64.18
2022-11-15T11:06:08.141Z,53.13
2022-11-15T11:08:37.544Z,43.42
2022-11-15T11:11:13.729Z,36.58
2022-11-15T11:13:44.038Z,31.00
2022-11-15T11:16:15.611Z,41.00
2022-11-15T11:18:54.054Z,33.70
2022-11-15T11:21:46.088Z,60.58
2022-11-15T11:24:34.885Z,39.88
2022-11-15T11:27:06.188Z,34.65
2022-11-15T11:29:45.437Z,98.38
2022-11-15T11:32:29.044Z,45.63
2022-11-15T11:34:58.620Z,32.53
2022-11-15T11:37:30.790Z,30.27
2022-11-15T11:40:19.402Z,35.42
2022-11-15T11:43:02.808Z,39.55
2022-11-15T11:45:36.011Z,38.65
2022-11-15T11:48:16.667Z,36.78
2022-11-15T11:50:47.953Z,31.00
2022-11-15T11:53:28.299Z,31.35
2022-11-15T11:56:03.594Z,44.20
2022-11-15T11:58:39.538Z,33.45
2022-11-15T12:01:29.542Z,32.42
2022-11-15T12:04:06.382Z,38.78
2022-11-15T12:06:52.301Z,32.33
2022-11-15T12:09:41.941Z,34.10
2022-11-15T12:12:21.441Z,39.53
2022-11-15T12:14:55.789Z,45.80
2022-11-15T12:17:33.705Z,38.83
2022-11-15T12:20:04.747Z,65.40
2022-11-15T12:22:40.331Z,57.47
2022-11-15T12:27:57.525Z,51.28
2022-11-15T12:30:42.249Z,73.05
2022-11-15T12:33:32.621Z,38.45
2022-11-15T12:36:11.483Z,32.65
2022-11-15T12:38:52.331Z,49.67
2022-11-15T12:41:21.526Z,45.92
2022-11-15T12:43:52.951Z,49.05
2022-11-15T12:46:34.692Z,60.90
2022-11-15T12:49:11.113Z,53.85
2022-11-15T12:54:23.558Z,47.97
2022-11-15T12:57:16.788Z,61.65
2022-11-15T12:59:57.128Z,46.85
2022-11-15T13:02:38.120Z,41.42
2022-11-15T13:05:47.052Z,70.55
2022-11-15T13:08:39.879Z,55.85
2022-11-15T13:11:36.522Z,39.15
2022-11-15T13:14:27.049Z,34.42
2022-11-15T13:17:31.736Z,37.08
2022-11-15T13:23:03.497Z,37.55
2022-11-15T13:25:41.065Z,40.05
2022-11-15T13:28:17.125Z,33.33
2022-11-15T13:30:48.878Z,37.75
2022-11-15T13:33:34.647Z,44.80
2022-11-15T13:36:10.740Z,51.47
2022-11-15T13:38:43.773Z,68.38
2022-11-15T13:41:23.300Z,46.03
2022-11-15T13:43:53.392Z,63.88
2022-11-15T13:46:43.664Z,40.15
2022-11-15T13:49:15.925Z,127.47
2022-11-15T13:51:56.395Z,139.65
2022-11-15T13:54:30.459Z,127.88
2022-11-15T13:57:20.451Z,69.95
2022-11-15T14:00:04.644Z,65.00
2022-11-15T14:03:21.170Z,36.38
2022-11-15T14:06:07.996Z,38.20
2022-11-15T14:08:40.384Z,40.65
2022-11-15T14:11:12.902Z,37.10
2022-11-15T14:13:42.577Z,35.97
2022-11-15T14:16:22.065Z,34.40
2022-11-15T14:22:12.747Z,65.63
2022-11-15T14:24:47.855Z,51.65
2022-11-15T14:27:35.633Z,33.60
2022-11-15T14:30:04.995Z,51.53
2022-11-15T14:32:49.233Z,57.42
2022-11-15T14:35:29.479Z,113.45
2022-11-15T14:38:01.632Z,54.08
2022-11-15T14:40:33.122Z,85.53
2022-11-15T14:43:12.736Z,50.35
2022-11-15T14:45:46.285Z,49.17
2022-11-15T14:48:23.495Z,57.13
2022-11-15T14:50:51.622Z,68.90
2022-11-15T14:53:22.985Z,29.13
2022-11-15T14:56:06.726Z,25.10
2022-11-15T14:58:43.236Z,29.90
2022-11-15T15:01:33.091Z,48.83
2022-11-15T15:04:01.957Z,31.55
2022-11-15T15:06:32.750Z,32.13
2022-11-15T15:09:01.503Z,39.30
2022-11-15T15:11:32.537Z,37.33
2022-11-15T15:14:07.543Z,26.10
2022-11-15T15:16:39.144Z,37.33
2022-11-15T15:19:09.806Z,35.72
2022-11-15T15:21:51.440Z,38.72
2022-11-15T15:24:22.863Z,36.97
2022-11-15T15:26:51.661Z,34.88
2022-11-15T15:29:21.417Z,36.58
2022-11-15T15:31:51.527Z,35.58
2022-11-15T15:34:22.217Z,26.15
2022-11-15T15:37:18.259Z,37.38
2022-11-15T15:40:17.334Z,29.38
2022-11-15T15:42:53.122Z,24.90
2022-11-15T15:45:28.586Z,25.70
2022-11-15T15:47:58.822Z,29.35
2022-11-15T15:50:32.418Z,23.50
2022-11-15T15:53:13.885Z,21.35
2022-11-15T15:58:36.979Z,23.85
2022-11-15T16:01:07.001Z,27.13
2022-11-15T16:03:38.827Z,34.85
2022-11-15T16:06:28.607Z,22.67
2022-11-15T16:09:13.978Z,20.95
2022-11-15T16:11:44.100Z,30.02
2022-11-15T16:14:13.811Z,25.27
2022-11-15T16:16:43.800Z,37.85
2022-11-15T16:19:13.343Z,59.00
2022-11-15T16:21:50.617Z,26.60
2022-11-15T16:24:23.681Z,35.47
2022-11-15T16:26:57.293Z,47.92
2022-11-15T16:29:27.307Z,28.27
2022-11-15T16:32:07.697Z,20.10
2022-11-15T16:34:42.756Z,24.15
2022-11-15T16:37:28.154Z,27.02
2022-11-15T16:40:06.663Z,20.63
2022-11-15T16:42:43.025Z,24.42
2022-11-15T16:45:31.431Z,24.58
2022-11-15T16:48:35.248Z,20.83
2022-11-15T16:51:05.121Z,20.90
2022-11-15T16:53:45.151Z,28.75
2022-11-15T16:56:41.114Z,23.42
2022-11-15T16:59:12.663Z,19.95
2022-11-15T17:01:46.964Z,19.13
2022-11-15T17:04:19.438Z,27.08
2022-11-15T17:06:48.621Z,22.85
2022-11-15T17:09:30.437Z,16.92
2022-11-15T17:12:12.000Z,18.95
2022-11-15T17:14:41.097Z,17.80
2022-11-15T17:17:11.121Z,15.75
2022-11-15T17:19:40.248Z,20.08
2022-11-15T17:22:10.274Z,19.63
2022-11-15T17:24:40.460Z,23.30
2022-11-15T17:27:08.772Z,19.98
2022-11-15T17:32:14.367Z,20.30
2022-11-15T17:34:46.635Z,18.80
2022-11-15T17:37:16.086Z,14.95
2022-11-15T17:39:46.886Z,19.20
2022-11-15T17:42:20.171Z,14.40
2022-11-15T17:44:53.695Z,19.35
2022-11-15T17:47:23.163Z,26.40
2022-11-15T17:49:52.180Z,21.33
2022-11-15T17:52:21.692Z,19.05
2022-11-15T17:54:51.265Z,20.73
2022-11-15T17:57:21.432Z,18.10
2022-11-15T17:59:54.036Z,27.38
2022-11-15T18:02:22.832Z,18.63
2022-11-15T18:04:52.497Z,22.27
2022-11-15T18:07:21.567Z,20.58
2022-11-15T18:09:51.638Z,16.75
2022-11-15T18:12:22.509Z,18.90
2022-11-15T18:14:57.048Z,24.42
2022-11-15T18:17:26.352Z,48.63
2022-11-15T18:20:00.829Z,17.85
2022-11-15T18:22:35.065Z,16.55
2022-11-15T18:25:12.281Z,14.85
2022-11-15T18:28:07.414Z,14.05
2022-11-15T18:30:42.409Z,16.73
2022-11-15T18:33:16.032Z,14.05
2022-11-15T18:35:52.218Z,27.88
2022-11-15T18:38:24.691Z,23.95
2022-11-15T18:40:59.936Z,33.28
2022-11-15T18:43:30.767Z,17.95
2022-11-15T18:46:12.146Z,16.33
2022-11-15T18:48:44.492Z,14.57
2022-11-15T18:51:22.158Z,15.18
2022-11-15T18:54:00.210Z,14.63
2022-11-15T18:56:31.549Z,29.55
2022-11-15T18:59:02.157Z,17.27
2022-11-15T19:01:38.246Z,16.42
2022-11-15T19:04:33.155Z,20.98
2022-11-15T19:07:04.595Z,16.77
2022-11-15T19:09:35.548Z,16.30
2022-11-15T19:12:06.925Z,15.88
2022-11-15T19:14:38.297Z,16.15
2022-11-15T19:17:13.692Z,16.70
2022-11-15T19:22:24.954Z,15.95
2022-11-15T19:24:59.908Z,16.25
2022-11-15T19:27:38.089Z,16.83
2022-11-15T19:30:11.004Z,19.05
2022-11-15T19:32:43.033Z,18.23
2022-11-15T19:35:19.608Z,18.55
2022-11-15T19:38:21.909Z,19.65
2022-11-15T19:41:15.733Z,18.30
2022-11-15T19:43:52.073Z,16.73
2022-11-15T19:46:24.848Z,18.00
2022-11-15T19:48:58.276Z,17.63
2022-11-15T19:51:31.278Z,17.63
2022-11-15T19:54:07.186Z,25.50
2022-11-15T19:56:38.483Z,17.85
2022-11-15T19:59:07.325Z,18.77
2022-11-15T20:01:48.251Z,18.27
2022-11-15T20:04:19.358Z,22.73
2022-11-15T20:06:51.712Z,21.05
2022-11-15T20:09:22.202Z,19.10
2022-11-15T20:11:53.911Z,19.25
2022-11-15T20:14:25.840Z,18.67
2022-11-15T20:16:58.668Z,20.40
2022-11-15T20:19:28.831Z,20.35
2022-11-15T20:22:00.246Z,20.85
2022-11-15T20:24:29.711Z,21.73
2022-11-15T20:27:02.229Z,21.55
2022-11-15T20:29:31.370Z,20.52
2022-11-15T20:32:05.912Z,19.85
2022-11-15T20:34:34.662Z,20.40
2022-11-15T20:37:19.168Z,20.90
2022-11-15T20:39:51.199Z,18.75
2022-11-15T20:42:24.165Z,20.55
2022-11-15T20:44:55.505Z,19.65
2022-11-15T20:47:29.115Z,18.23
2022-11-15T20:52:52.860Z,18.83
2022-11-15T20:55:26.180Z,20.20
2022-11-15T20:58:01.574Z,21.08
2022-11-15T21:00:33.625Z,22.33
2022-11-15T21:06:02.833Z,18.00
2022-11-15T21:12:06.116Z,29.10
2022-11-15T21:14:35.746Z,64.72
2022-11-15T21:17:05.129Z,62.10
2022-11-15T21:19:37.168Z,34.00
2022-11-15T21:22:12.970Z,32.25
2022-11-15T21:24:45.769Z,26.67
2022-11-15T21:27:15.719Z,34.22
2022-11-15T21:29:46.453Z,34.15
2022-11-15T21:32:15.488Z,20.42
2022-11-15T21:34:45.427Z,31.20
2022-11-15T21:37:15.548Z,38.50
2022-11-15T21:39:47.630Z,45.00
2022-11-15T21:42:23.749Z,53.22
2022-11-15T21:44:57.011Z,35.00
2022-11-15T21:47:36.340Z,35.35
2022-11-15T21:50:15.788Z,27.70
2022-11-15T21:52:45.151Z,27.88
2022-11-15T21:55:14.762Z,24.20
2022-11-15T21:57:43.643Z,22.67
2022-11-15T22:00:31.502Z,32.22
2022-11-15T22:03:00.657Z,22.70
2022-11-15T22:05:29.370Z,30.55
2022-11-15T22:07:57.664Z,48.70
2022-11-15T22:10:27.625Z,29.10
2022-11-15T22:12:57.748Z,26.38
2022-11-15T22:15:26.704Z,27.98
2022-11-15T22:17:57.955Z,31.38
2022-11-15T22:20:44.622Z,27.33
2022-11-15T22:23:13.334Z,25.30
2022-11-15T22:25:44.066Z,26.88
2022-11-15T22:28:12.347Z,33.30
2022-11-15T22:30:42.128Z,29.00
2022-11-15T22:33:10.701Z,30.23
2022-11-15T22:35:40.967Z,23.40
2022-11-15T22:38:09.954Z,34.38
2022-11-15T22:40:41.137Z,31.92
2022-11-15T22:43:10.749Z,26.30
2022-11-15T22:45:42.170Z,25.10
2022-11-15T22:48:14.230Z,24.77
2022-11-15T22:50:44.458Z,34.63
2022-11-15T22:53:13.939Z,42.50
2022-11-15T22:55:43.308Z,41.50
2022-11-15T22:58:11.915Z,29.67
2022-11-15T23:00:42.485Z,26.50
2022-11-15T23:03:11.495Z,24.92
2022-11-15T23:05:40.419Z,22.40
2022-11-15T23:08:09.239Z,25.60
2022-11-15T23:10:58.253Z,23.80
2022-11-15T23:13:33.399Z,25.48
2022-11-15T23:16:26.080Z,25.08
2022-11-15T23:18:56.112Z,29.27
2022-11-15T23:21:49.804Z,25.55
2022-11-15T23:24:20.707Z,26.98
2022-11-15T23:26:52.117Z,23.80
2022-11-15T23:29:21.957Z,21.27
2022-11-15T23:32:11.535Z,20.30
2022-11-15T23:34:47.314Z,23.75
2022-11-15T23:37:16.879Z,23.88
2022-11-15T23:39:46.461Z,24.33
2022-11-15T23:42:20.188Z,24.13
2022-11-15T23:44:50.896Z,20.67
2022-11-15T23:47:20.643Z,18.55
2022-11-15T23:49:49.988Z,19.70
2022-11-15T23:52:23.405Z,24.42
2022-11-15T23:54:52.771Z,21.63
2022-11-15T23:57:23.653Z,19.13
2022-11-15T23:59:52.969Z,19.55
